sensor_id;sensor_type;location;lat;lon;timestamp;temperature;humidity
6758;DHT22;3416;53.074;8.822;2024-01-10T00:00:47;-2.30;99.90
6758;DHT22;3416;53.074;8.822;2024-01-10T00:03:14;-2.40;99.90
6758;DHT22;3416;53.074;8.822;2024-01-10T00:05:42;-2.40;99.90
6758;DHT22;3416;53.074;8.822;2024-01-10T00:08:09;-2.40;99.90
6758;DHT22;3416;53.074;8.822;2024-01-10T00:10:36;-2.40;99.90
6758;DHT22;3416;53.074;8.822;2024-01-10T00:13:04;-2.40;99.90
6758;DHT22;3416;53.074;8.822;2024-01-10T00:15:31;-2.40;99.90
6758;DHT22;3416;53.074;8.822;2024-01-10T00:17:58;-2.40;99.90
6758;DHT22;3416;53.074;8.822;2024-01-10T00:20:25;-2.40;99.90
6758;DHT22;3416;53.074;8.822;2024-01-10T00:22:53;-2.40;99.90
6758;DHT22;3416;53.074;8.822;2024-01-10T00:25:20;-2.40;99.90
6758;DHT22;3416;53.074;8.822;2024-01-10T00:27:47;-2.40;99.90
6758;DHT22;3416;53.074;8.822;2024-01-10T00:30:14;-2.40;99.90
6758;DHT22;3416;53.074;8.822;2024-01-10T00:32:41;-2.40;99.90
6758;DHT22;3416;53.074;8.822;2024-01-10T00:35:08;-2.40;99.90
6758;DHT22;3416;53.074;8.822;2024-01-10T00:37:36;-2.40;99.90
6758;DHT22;3416;53.074;8.822;2024-01-10T00:40:06;-2.40;99.90
6758;DHT22;3416;53.074;8.822;2024-01-10T00:42:33;-2.40;99.90
6758;DHT22;3416;53.074;8.822;2024-01-10T00:45:00;-2.40;99.90
6758;DHT22;3416;53.074;8.822;2024-01-10T00:47:27;-2.40;99.90
6758;DHT22;3416;53.074;8.822;2024-01-10T00:49:54;-2.40;99.90
6758;DHT22;3416;53.074;8.822;2024-01-10T00:52:21;-2.30;99.90
6758;DHT22;3416;53.074;8.822;2024-01-10T00:54:48;-2.30;99.90
6758;DHT22;3416;53.074;8.822;2024-01-10T00:57:15;-2.20;99.90
6758;DHT22;3416;53.074;8.822;2024-01-10T00:59:42;-2.30;99.90
6758;DHT22;3416;53.074;8.822;2024-01-10T01:02:09;-2.30;99.90
6758;DHT22;3416;53.074;8.822;2024-01-10T01:04:36;-2.30;99.90
6758;DHT22;3416;53.074;8.822;2024-01-10T01:07:03;-2.30;99.90
6758;DHT22;3416;53.074;8.822;2024-01-10T01:09:30;-2.30;99.90
6758;DHT22;3416;53.074;8.822;2024-01-10T01:11:57;-2.40;99.90
6758;DHT22;3416;53.074;8.822;2024-01-10T01:14:26;-2.40;99.90
6758;DHT22;3416;53.074;8.822;2024-01-10T01:16:53;-2.40;99.90
6758;DHT22;3416;53.074;8.822;2024-01-10T01:19:20;-2.40;99.90
6758;DHT22;3416;53.074;8.822;2024-01-10T01:21:47;-2.40;99.90
6758;DHT22;3416;53.074;8.822;2024-01-10T01:24:14;-2.40;99.90
6758;DHT22;3416;53.074;8.822;2024-01-10T01:26:42;-2.50;99.90
6758;DHT22;3416;53.074;8.822;2024-01-10T01:29:09;-2.60;99.90
6758;DHT22;3416;53.074;8.822;2024-01-10T01:31:37;-2.60;99.90
6758;DHT22;3416;53.074;8.822;2024-01-10T01:34:04;-2.60;99.90
6758;DHT22;3416;53.074;8.822;2024-01-10T01:36:32;-2.50;99.90
6758;DHT22;3416;53.074;8.822;2024-01-10T01:38:59;-2.60;99.90
6758;DHT22;3416;53.074;8.822;2024-01-10T01:41:26;-2.60;99.90
6758;DHT22;3416;53.074;8.822;2024-01-10T01:43:53;-2.50;99.90
6758;DHT22;3416;53.074;8.822;2024-01-10T01:46:20;-2.60;99.90
6758;DHT22;3416;53.074;8.822;2024-01-10T01:48:49;-2.60;99.90
6758;DHT22;3416;53.074;8.822;2024-01-10T01:51:20;-2.60;99.90
6758;DHT22;3416;53.074;8.822;2024-01-10T01:53:48;-2.60;99.90
6758;DHT22;3416;53.074;8.822;2024-01-10T01:56:16;-2.60;99.90
6758;DHT22;3416;53.074;8.822;2024-01-10T01:58:43;-2.60;99.90
6758;DHT22;3416;53.074;8.822;2024-01-10T02:01:12;-2.60;99.90
6758;DHT22;3416;53.074;8.822;2024-01-10T02:03:40;-2.60;99.90
6758;DHT22;3416;53.074;8.822;2024-01-10T02:06:08;-2.60;99.90
6758;DHT22;3416;53.074;8.822;2024-01-10T02:08:35;-2.60;99.90
6758;DHT22;3416;53.074;8.822;2024-01-10T02:11:03;-2.60;99.90
6758;DHT22;3416;53.074;8.822;2024-01-10T02:13:31;-2.60;99.90
6758;DHT22;3416;53.074;8.822;2024-01-10T02:15:59;-2.60;99.90
6758;DHT22;3416;53.074;8.822;2024-01-10T02:18:26;-2.50;99.90
6758;DHT22;3416;53.074;8.822;2024-01-10T02:20:53;-2.50;99.90
6758;DHT22;3416;53.074;8.822;2024-01-10T02:23:21;-2.50;99.90
6758;DHT22;3416;53.074;8.822;2024-01-10T02:25:50;-2.50;99.90
6758;DHT22;3416;53.074;8.822;2024-01-10T02:28:17;-2.50;99.90
6758;DHT22;3416;53.074;8.822;2024-01-10T02:30:44;-2.60;99.90
6758;DHT22;3416;53.074;8.822;2024-01-10T02:33:12;-2.60;99.90
6758;DHT22;3416;53.074;8.822;2024-01-10T02:35:40;-2.70;99.90
6758;DHT22;3416;53.074;8.822;2024-01-10T02:38:06;-2.70;99.90
6758;DHT22;3416;53.074;8.822;2024-01-10T02:40:33;-2.60;99.90
6758;DHT22;3416;53.074;8.822;2024-01-10T02:43:02;-2.70;99.90
6758;DHT22;3416;53.074;8.822;2024-01-10T02:45:29;-2.70;99.90
6758;DHT22;3416;53.074;8.822;2024-01-10T02:47:56;-2.70;99.90
6758;DHT22;3416;53.074;8.822;2024-01-10T02:50:23;-2.80;99.90
6758;DHT22;3416;53.074;8.822;2024-01-10T02:52:50;-2.80;99.90
6758;DHT22;3416;53.074;8.822;2024-01-10T02:55:20;-2.90;99.90
6758;DHT22;3416;53.074;8.822;2024-01-10T02:57:56;-2.90;99.90
6758;DHT22;3416;53.074;8.822;2024-01-10T03:00:24;-2.90;99.90
6758;DHT22;3416;53.074;8.822;2024-01-10T03:02:51;-2.90;99.90
6758;DHT22;3416;53.074;8.822;2024-01-10T03:05:18;-2.90;99.90
6758;DHT22;3416;53.074;8.822;2024-01-10T03:07:45;-2.90;99.90
6758;DHT22;3416;53.074;8.822;2024-01-10T03:10:25;-3.00;99.90
6758;DHT22;3416;53.074;8.822;2024-01-10T03:12:52;-3.00;99.90
6758;DHT22;3416;53.074;8.822;2024-01-10T03:15:19;-3.00;99.90
6758;DHT22;3416;53.074;8.822;2024-01-10T03:17:47;-3.00;99.90
6758;DHT22;3416;53.074;8.822;2024-01-10T03:20:15;-2.90;99.90
6758;DHT22;3416;53.074;8.822;2024-01-10T03:22:46;-2.90;99.90
6758;DHT22;3416;53.074;8.822;2024-01-10T03:25:13;-3.00;99.90
6758;DHT22;3416;53.074;8.822;2024-01-10T03:27:41;-3.00;99.90
6758;DHT22;3416;53.074;8.822;2024-01-10T03:30:11;-3.00;99.90
6758;DHT22;3416;53.074;8.822;2024-01-10T03:32:38;-3.00;99.90
6758;DHT22;3416;53.074;8.822;2024-01-10T03:35:08;-3.10;99.90
6758;DHT22;3416;53.074;8.822;2024-01-10T03:37:45;-3.00;99.90
6758;DHT22;3416;53.074;8.822;2024-01-10T03:40:12;-3.00;99.90
6758;DHT22;3416;53.074;8.822;2024-01-10T03:42:39;-3.00;99.90
6758;DHT22;3416;53.074;8.822;2024-01-10T03:45:08;-3.00;99.90
6758;DHT22;3416;53.074;8.822;2024-01-10T03:47:36;-3.10;99.90
6758;DHT22;3416;53.074;8.822;2024-01-10T03:50:03;-3.10;99.90
6758;DHT22;3416;53.074;8.822;2024-01-10T03:52:32;-3.10;99.90
6758;DHT22;3416;53.074;8.822;2024-01-10T03:54:59;-3.10;99.90
6758;DHT22;3416;53.074;8.822;2024-01-10T03:57:26;-3.10;99.90
6758;DHT22;3416;53.074;8.822;2024-01-10T03:59:53;-3.10;99.90
6758;DHT22;3416;53.074;8.822;2024-01-10T04:02:20;-3.10;99.90
6758;DHT22;3416;53.074;8.822;2024-01-10T04:04:47;-3.10;99.90
6758;DHT22;3416;53.074;8.822;2024-01-10T04:07:15;-3.10;99.90
6758;DHT22;3416;53.074;8.822;2024-01-10T04:09:43;-3.10;99.90
6758;DHT22;3416;53.074;8.822;2024-01-10T04:12:10;-3.10;99.90
6758;DHT22;3416;53.074;8.822;2024-01-10T04:14:37;-3.10;99.90
6758;DHT22;3416;53.074;8.822;2024-01-10T04:17:04;-3.10;99.90
6758;DHT22;3416;53.074;8.822;2024-01-10T04:19:32;-3.10;99.90
6758;DHT22;3416;53.074;8.822;2024-01-10T04:21:59;-3.20;99.90
6758;DHT22;3416;53.074;8.822;2024-01-10T04:24:26;-3.10;99.90
6758;DHT22;3416;53.074;8.822;2024-01-10T04:26:55;-3.10;99.90
6758;DHT22;3416;53.074;8.822;2024-01-10T04:29:22;-3.10;99.90
6758;DHT22;3416;53.074;8.822;2024-01-10T04:31:50;-3.10;99.90
6758;DHT22;3416;53.074;8.822;2024-01-10T04:34:16;-3.10;99.90
6758;DHT22;3416;53.074;8.822;2024-01-10T04:36:44;-3.10;99.90
6758;DHT22;3416;53.074;8.822;2024-01-10T04:39:11;-3.10;99.90
6758;DHT22;3416;53.074;8.822;2024-01-10T04:41:38;-3.10;99.90
6758;DHT22;3416;53.074;8.822;2024-01-10T04:44:06;-3.00;99.90
6758;DHT22;3416;53.074;8.822;2024-01-10T04:46:33;-2.90;99.90
6758;DHT22;3416;53.074;8.822;2024-01-10T04:49:00;-3.00;99.90
6758;DHT22;3416;53.074;8.822;2024-01-10T04:51:27;-3.00;99.90
6758;DHT22;3416;53.074;8.822;2024-01-10T04:53:54;-3.00;99.90
6758;DHT22;3416;53.074;8.822;2024-01-10T04:56:22;-3.00;99.90
6758;DHT22;3416;53.074;8.822;2024-01-10T04:58:49;-3.00;99.90
6758;DHT22;3416;53.074;8.822;2024-01-10T05:01:17;-3.00;99.90
6758;DHT22;3416;53.074;8.822;2024-01-10T05:03:44;-3.10;99.90
6758;DHT22;3416;53.074;8.822;2024-01-10T05:06:11;-3.10;99.90
6758;DHT22;3416;53.074;8.822;2024-01-10T05:08:38;-3.10;99.90
6758;DHT22;3416;53.074;8.822;2024-01-10T05:11:05;-3.10;99.90
6758;DHT22;3416;53.074;8.822;2024-01-10T05:13:32;-3.10;99.90
6758;DHT22;3416;53.074;8.822;2024-01-10T05:15:59;-3.10;99.90
6758;DHT22;3416;53.074;8.822;2024-01-10T05:18:28;-3.20;99.90
6758;DHT22;3416;53.074;8.822;2024-01-10T05:20:55;-3.20;99.90
6758;DHT22;3416;53.074;8.822;2024-01-10T05:23:23;-3.20;99.90
6758;DHT22;3416;53.074;8.822;2024-01-10T05:25:50;-3.20;99.90
6758;DHT22;3416;53.074;8.822;2024-01-10T05:28:17;-3.20;99.90
6758;DHT22;3416;53.074;8.822;2024-01-10T05:30:44;-3.20;99.90
6758;DHT22;3416;53.074;8.822;2024-01-10T05:33:11;-3.20;99.90
6758;DHT22;3416;53.074;8.822;2024-01-10T05:35:40;-3.20;99.90
6758;DHT22;3416;53.074;8.822;2024-01-10T05:38:08;-3.20;99.90
6758;DHT22;3416;53.074;8.822;2024-01-10T05:40:35;-3.20;99.90
6758;DHT22;3416;53.074;8.822;2024-01-10T05:43:02;-3.20;99.90
6758;DHT22;3416;53.074;8.822;2024-01-10T05:45:29;-3.30;99.90
6758;DHT22;3416;53.074;8.822;2024-01-10T05:47:56;-3.30;99.90
6758;DHT22;3416;53.074;8.822;2024-01-10T05:50:23;-3.10;99.90
6758;DHT22;3416;53.074;8.822;2024-01-10T05:52:52;-3.30;99.90
6758;DHT22;3416;53.074;8.822;2024-01-10T05:55:19;-3.30;99.90
6758;DHT22;3416;53.074;8.822;2024-01-10T05:57:46;-3.30;99.90
6758;DHT22;3416;53.074;8.822;2024-01-10T06:00:14;-3.40;99.90
6758;DHT22;3416;53.074;8.822;2024-01-10T06:02:42;-3.40;99.90
6758;DHT22;3416;53.074;8.822;2024-01-10T06:05:10;-3.40;99.90
6758;DHT22;3416;53.074;8.822;2024-01-10T06:07:38;-3.40;99.90
6758;DHT22;3416;53.074;8.822;2024-01-10T06:10:08;-3.40;99.90
6758;DHT22;3416;53.074;8.822;2024-01-10T06:12:35;-3.40;99.90
6758;DHT22;3416;53.074;8.822;2024-01-10T06:15:04;-3.40;99.90
6758;DHT22;3416;53.074;8.822;2024-01-10T06:17:32;-3.40;99.90
6758;DHT22;3416;53.074;8.822;2024-01-10T06:19:59;-3.50;99.90
6758;DHT22;3416;53.074;8.822;2024-01-10T06:22:26;-3.40;99.90
6758;DHT22;3416;53.074;8.822;2024-01-10T06:24:53;-3.40;99.90
6758;DHT22;3416;53.074;8.822;2024-01-10T06:27:22;-3.50;99.90
6758;DHT22;3416;53.074;8.822;2024-01-10T06:29:49;-3.40;99.90
6758;DHT22;3416;53.074;8.822;2024-01-10T06:32:15;-3.40;99.90
6758;DHT22;3416;53.074;8.822;2024-01-10T06:34:42;-3.40;99.90
6758;DHT22;3416;53.074;8.822;2024-01-10T06:37:10;-3.40;99.90
6758;DHT22;3416;53.074;8.822;2024-01-10T06:39:37;-3.30;99.90
6758;DHT22;3416;53.074;8.822;2024-01-10T06:42:10;-3.30;99.90
6758;DHT22;3416;53.074;8.822;2024-01-10T06:44:39;-3.30;99.90
6758;DHT22;3416;53.074;8.822;2024-01-10T06:47:06;-3.30;99.90
6758;DHT22;3416;53.074;8.822;2024-01-10T06:49:39;-3.30;99.90
6758;DHT22;3416;53.074;8.822;2024-01-10T06:52:08;-3.30;99.90
6758;DHT22;3416;53.074;8.822;2024-01-10T06:54:35;-3.30;99.90
6758;DHT22;3416;53.074;8.822;2024-01-10T06:57:14;-3.30;99.90
6758;DHT22;3416;53.074;8.822;2024-01-10T06:59:42;-3.40;99.90
6758;DHT22;3416;53.074;8.822;2024-01-10T07:02:09;-3.30;99.90
6758;DHT22;3416;53.074;8.822;2024-01-10T07:04:37;-3.30;99.90
6758;DHT22;3416;53.074;8.822;2024-01-10T07:07:06;-3.30;99.90
6758;DHT22;3416;53.074;8.822;2024-01-10T07:09:34;-3.20;99.90
6758;DHT22;3416;53.074;8.822;2024-01-10T07:12:01;-3.30;99.90
6758;DHT22;3416;53.074;8.822;2024-01-10T07:14:29;-3.20;99.90
6758;DHT22;3416;53.074;8.822;2024-01-10T07:16:59;-3.30;99.90
6758;DHT22;3416;53.074;8.822;2024-01-10T07:19:26;-3.20;99.90
6758;DHT22;3416;53.074;8.822;2024-01-10T07:21:53;-3.20;99.90
6758;DHT22;3416;53.074;8.822;2024-01-10T07:24:20;-3.20;99.90
6758;DHT22;3416;53.074;8.822;2024-01-10T07:26:47;-3.20;99.90
6758;DHT22;3416;53.074;8.822;2024-01-10T07:29:15;-3.20;99.90
6758;DHT22;3416;53.074;8.822;2024-01-10T07:31:41;-3.20;99.90
6758;DHT22;3416;53.074;8.822;2024-01-10T07:34:10;-3.10;99.90
6758;DHT22;3416;53.074;8.822;2024-01-10T07:36:41;-3.10;99.90
6758;DHT22;3416;53.074;8.822;2024-01-10T07:39:09;-3.20;99.90
6758;DHT22;3416;53.074;8.822;2024-01-10T07:41:36;-3.30;99.90
6758;DHT22;3416;53.074;8.822;2024-01-10T07:44:04;-3.30;99.90
6758;DHT22;3416;53.074;8.822;2024-01-10T07:46:31;-3.30;99.90
6758;DHT22;3416;53.074;8.822;2024-01-10T07:49:06;-3.30;99.90
6758;DHT22;3416;53.074;8.822;2024-01-10T07:51:35;-3.30;99.90
6758;DHT22;3416;53.074;8.822;2024-01-10T07:54:02;-3.30;99.90
6758;DHT22;3416;53.074;8.822;2024-01-10T07:56:29;-3.20;99.90
6758;DHT22;3416;53.074;8.822;2024-01-10T07:58:56;-3.20;99.90
6758;DHT22;3416;53.074;8.822;2024-01-10T08:01:24;-3.10;99.90
6758;DHT22;3416;53.074;8.822;2024-01-10T08:03:51;-3.10;99.90
6758;DHT22;3416;53.074;8.822;2024-01-10T08:06:18;-3.10;99.90
6758;DHT22;3416;53.074;8.822;2024-01-10T08:08:47;-3.10;99.90
6758;DHT22;3416;53.074;8.822;2024-01-10T08:11:14;-3.10;99.90
6758;DHT22;3416;53.074;8.822;2024-01-10T08:13:41;-3.10;99.90
6758;DHT22;3416;53.074;8.822;2024-01-10T08:16:08;-3.00;99.90
6758;DHT22;3416;53.074;8.822;2024-01-10T08:18:35;-3.00;99.90
6758;DHT22;3416;53.074;8.822;2024-01-10T08:21:02;-2.90;99.90
6758;DHT22;3416;53.074;8.822;2024-01-10T08:23:30;-2.80;99.90
6758;DHT22;3416;53.074;8.822;2024-01-10T08:25:58;-2.20;99.90
6758;DHT22;3416;53.074;8.822;2024-01-10T08:28:25;-1.40;99.90
6758;DHT22;3416;53.074;8.822;2024-01-10T08:30:53;-0.50;99.90
6758;DHT22;3416;53.074;8.822;2024-01-10T08:33:20;0.40;99.90
6758;DHT22;3416;53.074;8.822;2024-01-10T08:35:47;1.30;99.90
6758;DHT22;3416;53.074;8.822;2024-01-10T08:38:14;1.70;99.90
6758;DHT22;3416;53.074;8.822;2024-01-10T08:40:41;2.00;99.90
6758;DHT22;3416;53.074;8.822;2024-01-10T08:43:09;2.30;99.90
6758;DHT22;3416;53.074;8.822;2024-01-10T08:45:36;2.20;99.90
6758;DHT22;3416;53.074;8.822;2024-01-10T08:48:03;1.90;99.30
6758;DHT22;3416;53.074;8.822;2024-01-10T08:50:32;1.40;99.70
6758;DHT22;3416;53.074;8.822;2024-01-10T08:52:59;1.70;99.90
6758;DHT22;3416;53.074;8.822;2024-01-10T08:55:29;2.50;99.90
6758;DHT22;3416;53.074;8.822;2024-01-10T08:57:56;3.20;98.30
6758;DHT22;3416;53.074;8.822;2024-01-10T09:00:25;3.80;97.00
6758;DHT22;3416;53.074;8.822;2024-01-10T09:02:52;4.10;94.50
6758;DHT22;3416;53.074;8.822;2024-01-10T09:05:19;4.40;94.00
6758;DHT22;3416;53.074;8.822;2024-01-10T09:07:47;4.40;93.50
6758;DHT22;3416;53.074;8.822;2024-01-10T09:10:14;5.20;94.30
6758;DHT22;3416;53.074;8.822;2024-01-10T09:12:41;5.50;95.80
6758;DHT22;3416;53.074;8.822;2024-01-10T09:15:12;5.90;91.90
6758;DHT22;3416;53.074;8.822;2024-01-10T09:17:41;6.20;90.70
6758;DHT22;3416;53.074;8.822;2024-01-10T09:20:09;6.40;90.10
6758;DHT22;3416;53.074;8.822;2024-01-10T09:22:36;6.20;89.70
6758;DHT22;3416;53.074;8.822;2024-01-10T09:25:04;6.60;89.00
6758;DHT22;3416;53.074;8.822;2024-01-10T09:27:31;6.80;86.90
6758;DHT22;3416;53.074;8.822;2024-01-10T09:29:59;7.10;87.00
6758;DHT22;3416;53.074;8.822;2024-01-10T09:32:27;7.50;84.60
6758;DHT22;3416;53.074;8.822;2024-01-10T09:34:55;7.60;83.50
6758;DHT22;3416;53.074;8.822;2024-01-10T09:37:22;7.80;82.80
6758;DHT22;3416;53.074;8.822;2024-01-10T09:39:50;7.80;82.70
6758;DHT22;3416;53.074;8.822;2024-01-10T09:42:18;7.30;81.10
6758;DHT22;3416;53.074;8.822;2024-01-10T09:44:47;6.80;80.50
6758;DHT22;3416;53.074;8.822;2024-01-10T09:47:15;7.10;82.10
6758;DHT22;3416;53.074;8.822;2024-01-10T09:49:42;7.40;81.10
6758;DHT22;3416;53.074;8.822;2024-01-10T09:52:21;7.10;81.40
6758;DHT22;3416;53.074;8.822;2024-01-10T09:54:52;6.80;81.10
6758;DHT22;3416;53.074;8.822;2024-01-10T09:57:20;6.90;80.60
6758;DHT22;3416;53.074;8.822;2024-01-10T09:59:50;7.00;81.50
6758;DHT22;3416;53.074;8.822;2024-01-10T10:02:18;7.20;80.00
6758;DHT22;3416;53.074;8.822;2024-01-10T10:05:02;7.00;79.30
6758;DHT22;3416;53.074;8.822;2024-01-10T10:07:43;7.20;79.80
6758;DHT22;3416;53.074;8.822;2024-01-10T10:10:10;7.10;79.00
6758;DHT22;3416;53.074;8.822;2024-01-10T10:12:44;6.90;78.10
6758;DHT22;3416;53.074;8.822;2024-01-10T10:15:13;7.40;79.70
6758;DHT22;3416;53.074;8.822;2024-01-10T10:17:41;7.60;78.30
6758;DHT22;3416;53.074;8.822;2024-01-10T10:20:13;7.50;77.90
6758;DHT22;3416;53.074;8.822;2024-01-10T10:22:58;7.70;78.10
6758;DHT22;3416;53.074;8.822;2024-01-10T10:25:28;7.40;76.70
6758;DHT22;3416;53.074;8.822;2024-01-10T10:27:56;6.90;77.10
6758;DHT22;3416;53.074;8.822;2024-01-10T10:30:23;6.30;76.40
6758;DHT22;3416;53.074;8.822;2024-01-10T10:32:50;5.70;77.50
6758;DHT22;3416;53.074;8.822;2024-01-10T10:35:18;4.70;79.20
6758;DHT22;3416;53.074;8.822;2024-01-10T10:37:47;4.50;80.60
6758;DHT22;3416;53.074;8.822;2024-01-10T10:40:15;4.20;82.20
6758;DHT22;3416;53.074;8.822;2024-01-10T10:42:44;3.80;81.60
6758;DHT22;3416;53.074;8.822;2024-01-10T10:45:15;3.50;82.00
6758;DHT22;3416;53.074;8.822;2024-01-10T10:47:44;3.40;82.80
6758;DHT22;3416;53.074;8.822;2024-01-10T10:50:21;3.20;83.30
6758;DHT22;3416;53.074;8.822;2024-01-10T10:52:51;2.90;84.30
6758;DHT22;3416;53.074;8.822;2024-01-10T10:55:19;2.40;84.80
6758;DHT22;3416;53.074;8.822;2024-01-10T10:57:47;2.00;86.20
6758;DHT22;3416;53.074;8.822;2024-01-10T11:00:16;1.80;88.10
6758;DHT22;3416;53.074;8.822;2024-01-10T11:02:44;1.70;88.90
6758;DHT22;3416;53.074;8.822;2024-01-10T11:05:13;1.60;90.20
6758;DHT22;3416;53.074;8.822;2024-01-10T11:07:40;1.40;90.60
6758;DHT22;3416;53.074;8.822;2024-01-10T11:10:12;1.30;91.00
6758;DHT22;3416;53.074;8.822;2024-01-10T11:12:55;1.30;91.20
6758;DHT22;3416;53.074;8.822;2024-01-10T11:15:54;1.00;91.70
6758;DHT22;3416;53.074;8.822;2024-01-10T11:18:42;0.90;92.20
6758;DHT22;3416;53.074;8.822;2024-01-10T11:21:19;0.70;92.30
6758;DHT22;3416;53.074;8.822;2024-01-10T11:23:52;0.70;92.70
6758;DHT22;3416;53.074;8.822;2024-01-10T11:26:22;0.70;92.80
6758;DHT22;3416;53.074;8.822;2024-01-10T11:28:50;0.60;92.60
6758;DHT22;3416;53.074;8.822;2024-01-10T11:31:27;0.40;92.70
6758;DHT22;3416;53.074;8.822;2024-01-10T11:33:56;0.20;92.90
6758;DHT22;3416;53.074;8.822;2024-01-10T11:36:23;0.20;93.30
6758;DHT22;3416;53.074;8.822;2024-01-10T11:38:54;0.30;93.20
6758;DHT22;3416;53.074;8.822;2024-01-10T11:41:25;0.20;92.60
6758;DHT22;3416;53.074;8.822;2024-01-10T11:46:55;0.20;93.00
6758;DHT22;3416;53.074;8.822;2024-01-10T11:49:24;0.20;93.40
6758;DHT22;3416;53.074;8.822;2024-01-10T11:51:54;0.40;93.70
6758;DHT22;3416;53.074;8.822;2024-01-10T11:54:43;0.40;93.50
6758;DHT22;3416;53.074;8.822;2024-01-10T11:57:19;0.50;92.90
6758;DHT22;3416;53.074;8.822;2024-01-10T11:59:46;0.50;92.50
6758;DHT22;3416;53.074;8.822;2024-01-10T12:02:14;0.50;92.70
6758;DHT22;3416;53.074;8.822;2024-01-10T12:04:41;0.50;92.70
6758;DHT22;3416;53.074;8.822;2024-01-10T12:07:09;0.40;92.30
6758;DHT22;3416;53.074;8.822;2024-01-10T12:09:35;0.30;92.70
6758;DHT22;3416;53.074;8.822;2024-01-10T12:12:03;0.30;92.70
6758;DHT22;3416;53.074;8.822;2024-01-10T12:14:32;0.30;92.60
6758;DHT22;3416;53.074;8.822;2024-01-10T12:17:00;0.30;92.80
6758;DHT22;3416;53.074;8.822;2024-01-10T12:19:27;0.30;92.90
6758;DHT22;3416;53.074;8.822;2024-01-10T12:21:54;0.30;92.80
6758;DHT22;3416;53.074;8.822;2024-01-10T12:24:21;0.40;92.90
6758;DHT22;3416;53.074;8.822;2024-01-10T12:26:49;0.50;92.70
6758;DHT22;3416;53.074;8.822;2024-01-10T12:29:17;0.50;93.00
6758;DHT22;3416;53.074;8.822;2024-01-10T12:31:47;0.50;93.20
6758;DHT22;3416;53.074;8.822;2024-01-10T12:34:14;0.60;93.30
6758;DHT22;3416;53.074;8.822;2024-01-10T12:36:42;0.70;92.90
6758;DHT22;3416;53.074;8.822;2024-01-10T12:39:09;0.70;92.50
6758;DHT22;3416;53.074;8.822;2024-01-10T12:41:36;0.70;92.30
6758;DHT22;3416;53.074;8.822;2024-01-10T12:44:04;0.50;92.50
6758;DHT22;3416;53.074;8.822;2024-01-10T12:46:32;0.40;92.30
6758;DHT22;3416;53.074;8.822;2024-01-10T12:49:02;0.20;92.40
6758;DHT22;3416;53.074;8.822;2024-01-10T12:51:31;0.30;92.70
6758;DHT22;3416;53.074;8.822;2024-01-10T12:53:59;0.10;92.40
6758;DHT22;3416;53.074;8.822;2024-01-10T12:56:27;0.20;92.70
6758;DHT22;3416;53.074;8.822;2024-01-10T12:58:55;0.10;92.80
6758;DHT22;3416;53.074;8.822;2024-01-10T13:01:22;0.20;92.90
6758;DHT22;3416;53.074;8.822;2024-01-10T13:03:49;0.20;92.70
6758;DHT22;3416;53.074;8.822;2024-01-10T13:06:18;0.30;92.80
6758;DHT22;3416;53.074;8.822;2024-01-10T13:08:48;0.30;92.70
6758;DHT22;3416;53.074;8.822;2024-01-10T13:11:15;0.30;92.70
6758;DHT22;3416;53.074;8.822;2024-01-10T13:13:42;0.40;92.80
6758;DHT22;3416;53.074;8.822;2024-01-10T13:16:09;0.50;92.70
6758;DHT22;3416;53.074;8.822;2024-01-10T13:18:38;0.50;92.40
6758;DHT22;3416;53.074;8.822;2024-01-10T13:21:05;0.50;92.50
6758;DHT22;3416;53.074;8.822;2024-01-10T13:23:34;0.40;92.60
6758;DHT22;3416;53.074;8.822;2024-01-10T13:26:02;0.40;92.90
6758;DHT22;3416;53.074;8.822;2024-01-10T13:28:29;0.50;93.00
6758;DHT22;3416;53.074;8.822;2024-01-10T13:30:56;0.50;93.10
6758;DHT22;3416;53.074;8.822;2024-01-10T13:33:23;0.50;92.90
6758;DHT22;3416;53.074;8.822;2024-01-10T13:35:51;0.60;92.70
6758;DHT22;3416;53.074;8.822;2024-01-10T13:38:18;0.50;92.00
6758;DHT22;3416;53.074;8.822;2024-01-10T13:40:47;0.40;92.00
6758;DHT22;3416;53.074;8.822;2024-01-10T13:43:14;0.40;92.00
6758;DHT22;3416;53.074;8.822;2024-01-10T13:45:41;0.30;92.30
6758;DHT22;3416;53.074;8.822;2024-01-10T13:48:08;0.40;92.80
6758;DHT22;3416;53.074;8.822;2024-01-10T13:50:36;0.50;93.00
6758;DHT22;3416;53.074;8.822;2024-01-10T13:53:03;0.60;93.00
6758;DHT22;3416;53.074;8.822;2024-01-10T13:55:31;0.60;93.00
6758;DHT22;3416;53.074;8.822;2024-01-10T13:57:59;0.50;92.90
6758;DHT22;3416;53.074;8.822;2024-01-10T14:00:26;0.40;93.30
6758;DHT22;3416;53.074;8.822;2024-01-10T14:02:53;0.30;93.20
6758;DHT22;3416;53.074;8.822;2024-01-10T14:05:25;0.40;92.80
6758;DHT22;3416;53.074;8.822;2024-01-10T14:07:53;0.30;92.60
6758;DHT22;3416;53.074;8.822;2024-01-10T14:10:20;0.30;92.80
6758;DHT22;3416;53.074;8.822;2024-01-10T14:12:47;0.30;92.50
6758;DHT22;3416;53.074;8.822;2024-01-10T14:15:16;0.30;92.60
6758;DHT22;3416;53.074;8.822;2024-01-10T14:17:43;0.40;92.60
6758;DHT22;3416;53.074;8.822;2024-01-10T14:20:10;0.60;92.80
6758;DHT22;3416;53.074;8.822;2024-01-10T14:22:39;0.40;92.50
6758;DHT22;3416;53.074;8.822;2024-01-10T14:25:08;0.50;92.30
6758;DHT22;3416;53.074;8.822;2024-01-10T14:27:36;0.50;92.50
6758;DHT22;3416;53.074;8.822;2024-01-10T14:30:06;0.50;92.30
6758;DHT22;3416;53.074;8.822;2024-01-10T14:32:36;0.40;92.40
6758;DHT22;3416;53.074;8.822;2024-01-10T14:35:04;0.40;92.50
6758;DHT22;3416;53.074;8.822;2024-01-10T14:37:32;0.30;92.70
6758;DHT22;3416;53.074;8.822;2024-01-10T14:40:02;0.20;92.80
6758;DHT22;3416;53.074;8.822;2024-01-10T14:42:29;0.20;92.90
6758;DHT22;3416;53.074;8.822;2024-01-10T14:44:56;0.30;93.10
6758;DHT22;3416;53.074;8.822;2024-01-10T14:47:23;0.40;93.00
6758;DHT22;3416;53.074;8.822;2024-01-10T14:49:52;0.40;93.00
6758;DHT22;3416;53.074;8.822;2024-01-10T14:52:19;0.20;93.10
6758;DHT22;3416;53.074;8.822;2024-01-10T14:54:48;0.10;93.40
6758;DHT22;3416;53.074;8.822;2024-01-10T14:57:15;0.10;93.40
6758;DHT22;3416;53.074;8.822;2024-01-10T14:59:42;0.10;93.40
6758;DHT22;3416;53.074;8.822;2024-01-10T15:02:09;0.00;93.70
6758;DHT22;3416;53.074;8.822;2024-01-10T15:04:40;0.00;93.90
6758;DHT22;3416;53.074;8.822;2024-01-10T15:07:08;0.00;94.00
6758;DHT22;3416;53.074;8.822;2024-01-10T15:09:35;0.00;94.10
6758;DHT22;3416;53.074;8.822;2024-01-10T15:12:04;0.00;94.20
6758;DHT22;3416;53.074;8.822;2024-01-10T15:14:33;0.00;94.40
6758;DHT22;3416;53.074;8.822;2024-01-10T15:17:01;-0.10;94.50
6758;DHT22;3416;53.074;8.822;2024-01-10T15:19:30;-0.10;94.50
6758;DHT22;3416;53.074;8.822;2024-01-10T15:21:57;-0.10;94.30
6758;DHT22;3416;53.074;8.822;2024-01-10T15:24:27;-0.20;94.30
6758;DHT22;3416;53.074;8.822;2024-01-10T15:26:54;-0.20;94.40
6758;DHT22;3416;53.074;8.822;2024-01-10T15:29:27;-0.20;94.50
6758;DHT22;3416;53.074;8.822;2024-01-10T15:31:54;-0.20;94.30
6758;DHT22;3416;53.074;8.822;2024-01-10T15:34:21;-0.40;94.50
6758;DHT22;3416;53.074;8.822;2024-01-10T15:36:50;-0.50;94.70
6758;DHT22;3416;53.074;8.822;2024-01-10T15:39:17;-0.50;94.90
6758;DHT22;3416;53.074;8.822;2024-01-10T15:41:47;-0.50;95.20
6758;DHT22;3416;53.074;8.822;2024-01-10T15:44:14;-0.50;95.20
6758;DHT22;3416;53.074;8.822;2024-01-10T15:46:41;-0.50;95.90
6758;DHT22;3416;53.074;8.822;2024-01-10T15:49:08;-0.40;96.10
6758;DHT22;3416;53.074;8.822;2024-01-10T15:51:35;-0.40;96.10
6758;DHT22;3416;53.074;8.822;2024-01-10T15:54:02;-0.40;96.20
6758;DHT22;3416;53.074;8.822;2024-01-10T15:56:29;-0.40;96.50
6758;DHT22;3416;53.074;8.822;2024-01-10T15:58:58;-0.40;96.50
6758;DHT22;3416;53.074;8.822;2024-01-10T16:01:25;-0.60;96.70
6758;DHT22;3416;53.074;8.822;2024-01-10T16:03:52;-0.50;97.20
6758;DHT22;3416;53.074;8.822;2024-01-10T16:06:19;-0.60;97.20
6758;DHT22;3416;53.074;8.822;2024-01-10T16:08:47;-0.50;97.60
6758;DHT22;3416;53.074;8.822;2024-01-10T16:11:14;-0.50;97.80
6758;DHT22;3416;53.074;8.822;2024-01-10T16:13:41;-0.50;98.30
6758;DHT22;3416;53.074;8.822;2024-01-10T16:16:09;-0.50;98.70